sensor_id;sensor_type;location;lat;lon;timestamp;pressure;altitude;pressure_sealevel;temperature;humidity
27040;BME280;14589;51.578;7.306;2024-03-23T00:54:41;100422.19;;;7.85;100.00
27040;BME280;14589;51.578;7.306;2024-03-23T00:57:11;100418.50;;;7.86;100.00
27040;BME280;14589;51.578;7.306;2024-03-23T00:59:42;100420.59;;;7.73;100.00
27040;BME280;14589;51.578;7.306;2024-03-23T01:02:12;100413.78;;;7.69;100.00
27040;BME280;14589;51.578;7.306;2024-03-23T01:04:42;100411.38;;;7.76;100.00
27040;BME280;14589;51.578;7.306;2024-03-23T01:07:13;100422.59;;;7.71;100.00
27040;BME280;14589;51.578;7.306;2024-03-23T01:09:43;100409.06;;;7.61;100.00
27040;BME280;14589;51.578;7.306;2024-03-23T01:12:14;100401.09;;;7.60;100.00
27040;BME280;14589;51.578;7.306;2024-03-23T01:14:44;100402.38;;;7.56;100.00
27040;BME280;14589;51.578;7.306;2024-03-23T01:17:14;100403.50;;;7.53;100.00
27040;BME280;14589;51.578;7.306;2024-03-23T01:19:45;100396.66;;;7.49;100.00
27040;BME280;14589;51.578;7.306;2024-03-23T01:22:15;100402.94;;;7.50;100.00
27040;BME280;14589;51.578;7.306;2024-03-23T01:24:46;100391.41;;;7.48;100.00
27040;BME280;14589;51.578;7.306;2024-03-23T01:27:16;100380.47;;;7.40;100.00
27040;BME280;14589;51.578;7.306;2024-03-23T01:29:46;100395.38;;;7.44;100.00
27040;BME280;14589;51.578;7.306;2024-03-23T01:32:18;100395.38;;;7.44;100.00
27040;BME280;14589;51.578;7.306;2024-03-23T01:34:48;100383.97;;;7.30;100.00
27040;BME280;14589;51.578;7.306;2024-03-23T01:37:19;100378.31;;;7.34;100.00
27040;BME280;14589;51.578;7.306;2024-03-23T01:39:49;100371.53;;;7.39;100.00
27040;BME280;14589;51.578;7.306;2024-03-23T01:42:19;100368.53;;;7.42;100.00
27040;BME280;14589;51.578;7.306;2024-03-23T01:44:51;100374.78;;;7.43;100.00
27040;BME280;14589;51.578;7.306;2024-03-23T01:47:21;100374.66;;;7.44;100.00
27040;BME280;14589;51.578;7.306;2024-03-23T01:49:51;100370.13;;;7.45;100.00
27040;BME280;14589;51.578;7.306;2024-03-23T01:52:22;100381.63;;;7.47;100.00
27040;BME280;14589;51.578;7.306;2024-03-23T01:54:53;100362.88;;;7.45;100.00
27040;BME280;14589;51.578;7.306;2024-03-23T01:57:23;100378.63;;;7.50;100.00
27040;BME280;14589;51.578;7.306;2024-03-23T01:59:53;100378.22;;;7.45;100.00
27040;BME280;14589;51.578;7.306;2024-03-23T02:02:30;100377.22;;;7.46;100.00
27040;BME280;14589;51.578;7.306;2024-03-23T02:05:01;100367.13;;;7.48;100.00
27040;BME280;14589;51.578;7.306;2024-03-23T02:07:31;100348.09;;;7.40;100.00
27040;BME280;14589;51.578;7.306;2024-03-23T02:10:02;100335.00;;;7.35;100.00
27040;BME280;14589;51.578;7.306;2024-03-23T02:12:33;100323.09;;;7.28;100.00
27040;BME280;14589;51.578;7.306;2024-03-23T02:15:04;100320.09;;;7.21;100.00
27040;BME280;14589;51.578;7.306;2024-03-23T02:17:35;100340.94;;;7.19;100.00
27040;BME280;14589;51.578;7.306;2024-03-23T02:20:06;100338.66;;;7.15;100.00
27040;BME280;14589;51.578;7.306;2024-03-23T02:22:37;100343.19;;;7.14;100.00
27040;BME280;14589;51.578;7.306;2024-03-23T02:25:07;100338.78;;;7.13;100.00
27040;BME280;14589;51.578;7.306;2024-03-23T02:27:38;100331.56;;;7.14;100.00
27040;BME280;14589;51.578;7.306;2024-03-23T02:30:10;100326.41;;;7.11;100.00
27040;BME280;14589;51.578;7.306;2024-03-23T02:32:40;100329.97;;;7.11;100.00
27040;BME280;14589;51.578;7.306;2024-03-23T02:35:11;100334.25;;;7.14;100.00
27040;BME280;14589;51.578;7.306;2024-03-23T02:37:41;100340.38;;;7.16;100.00
27040;BME280;14589;51.578;7.306;2024-03-23T02:40:12;100345.16;;;7.12;100.00
27040;BME280;14589;51.578;7.306;2024-03-23T02:42:42;100339.78;;;7.12;100.00
27040;BME280;14589;51.578;7.306;2024-03-23T02:45:12;100336.22;;;7.12;100.00
27040;BME280;14589;51.578;7.306;2024-03-23T02:47:43;100324.13;;;6.97;100.00
27040;BME280;14589;51.578;7.306;2024-03-23T02:50:13;100333.88;;;6.98;100.00
27040;BME280;14589;51.578;7.306;2024-03-23T02:52:46;100323.50;;;6.93;100.00
27040;BME280;14589;51.578;7.306;2024-03-23T02:55:16;100313.47;;;6.95;100.00
27040;BME280;14589;51.578;7.306;2024-03-23T02:57:46;100317.13;;;6.94;100.00
27040;BME280;14589;51.578;7.306;2024-03-23T03:00:17;100317.00;;;6.96;100.00
27040;BME280;14589;51.578;7.306;2024-03-23T03:02:47;100312.59;;;6.95;100.00
27040;BME280;14589;51.578;7.306;2024-03-23T03:05:18;100315.56;;;6.91;100.00
27040;BME280;14589;51.578;7.306;2024-03-23T03:07:48;100315.31;;;6.95;100.00
27040;BME280;14589;51.578;7.306;2024-03-23T03:10:18;100316.28;;;6.94;100.00
27040;BME280;14589;51.578;7.306;2024-03-23T03:12:49;100327.19;;;6.92;100.00
27040;BME280;14589;51.578;7.306;2024-03-23T03:15:19;100330.63;;;6.94;100.00
27040;BME280;14589;51.578;7.306;2024-03-23T03:17:50;100332.34;;;6.95;100.00
27040;BME280;14589;51.578;7.306;2024-03-23T03:20:20;100328.78;;;6.95;100.00
27040;BME280;14589;51.578;7.306;2024-03-23T03:22:52;100328.91;;;6.93;100.00
27040;BME280;14589;51.578;7.306;2024-03-23T03:25:23;100323.81;;;6.90;100.00
27040;BME280;14589;51.578;7.306;2024-03-23T03:27:54;100311.44;;;6.87;100.00
27040;BME280;14589;51.578;7.306;2024-03-23T03:30:24;100314.41;;;6.84;100.00
27040;BME280;14589;51.578;7.306;2024-03-23T03:32:55;100321.25;;;6.88;100.00
27040;BME280;14589;51.578;7.306;2024-03-23T03:35:25;100322.94;;;6.89;100.00
27040;BME280;14589;51.578;7.306;2024-03-23T03:37:55;100316.25;;;6.84;100.00
27040;BME280;14589;51.578;7.306;2024-03-23T03:40:26;100317.81;;;6.86;100.00
27040;BME280;14589;51.578;7.306;2024-03-23T03:42:56;100307.00;;;6.77;100.00
27040;BME280;14589;51.578;7.306;2024-03-23T03:45:26;100303.78;;;6.83;100.00
27040;BME280;14589;51.578;7.306;2024-03-23T03:47:57;100298.06;;;6.76;100.00
27040;BME280;14589;51.578;7.306;2024-03-23T03:50:27;100308.31;;;6.82;100.00
27040;BME280;14589;51.578;7.306;2024-03-23T03:52:58;100309.41;;;6.80;100.00
27040;BME280;14589;51.578;7.306;2024-03-23T03:55:28;100309.69;;;6.77;100.00
27040;BME280;14589;51.578;7.306;2024-03-23T03:57:58;100313.38;;;6.76;100.00
27040;BME280;14589;51.578;7.306;2024-03-23T04:00:29;100310.69;;;6.76;100.00
27040;BME280;14589;51.578;7.306;2024-03-23T04:02:59;100304.97;;;6.69;100.00
27040;BME280;14589;51.578;7.306;2024-03-23T04:05:29;100297.88;;;6.68;100.00
27040;BME280;14589;51.578;7.306;2024-03-23T04:08:00;100302.28;;;6.69;100.00
27040;BME280;14589;51.578;7.306;2024-03-23T04:10:30;100294.19;;;6.69;100.00
27040;BME280;14589;51.578;7.306;2024-03-23T04:13:00;100309.50;;;6.69;100.00
27040;BME280;14589;51.578;7.306;2024-03-23T04:15:31;100318.44;;;6.69;100.00
27040;BME280;14589;51.578;7.306;2024-03-23T04:18:01;100302.81;;;6.63;100.00
27040;BME280;14589;51.578;7.306;2024-03-23T04:20:32;100304.53;;;6.64;100.00
27040;BME280;14589;51.578;7.306;2024-03-23T04:23:02;100296.00;;;6.59;100.00
27040;BME280;14589;51.578;7.306;2024-03-23T04:25:33;100299.41;;;6.61;100.00
27040;BME280;14589;51.578;7.306;2024-03-23T04:28:03;100289.03;;;6.57;100.00
27040;BME280;14589;51.578;7.306;2024-03-23T04:30:34;100309.47;;;6.59;100.00
27040;BME280;14589;51.578;7.306;2024-03-23T04:33:05;100305.19;;;6.57;100.00
27040;BME280;14589;51.578;7.306;2024-03-23T04:35:36;100308.88;;;6.56;100.00
27040;BME280;14589;51.578;7.306;2024-03-23T04:38:06;100299.69;;;6.58;100.00
27040;BME280;14589;51.578;7.306;2024-03-23T04:40:37;100301.22;;;6.61;100.00
27040;BME280;14589;51.578;7.306;2024-03-23T04:43:07;100297.00;;;6.58;100.00
27040;BME280;14589;51.578;7.306;2024-03-23T04:45:38;100283.94;;;6.54;100.00
27040;BME280;14589;51.578;7.306;2024-03-23T04:48:08;100283.06;;;6.53;100.00
27040;BME280;14589;51.578;7.306;2024-03-23T04:50:39;100281.50;;;6.50;100.00
27040;BME280;14589;51.578;7.306;2024-03-23T04:53:09;100285.78;;;6.53;100.00
27040;BME280;14589;51.578;7.306;2024-03-23T04:55:39;100285.03;;;6.51;100.00
27040;BME280;14589;51.578;7.306;2024-03-23T04:58:10;100282.34;;;6.51;100.00
27040;BME280;14589;51.578;7.306;2024-03-23T05:00:40;100299.25;;;6.53;100.00
27040;BME280;14589;51.578;7.306;2024-03-23T05:03:10;100289.69;;;6.49;100.00
27040;BME280;14589;51.578;7.306;2024-03-23T05:05:41;100291.28;;;6.52;100.00
27040;BME280;14589;51.578;7.306;2024-03-23T05:08:11;100292.13;;;6.52;100.00
27040;BME280;14589;51.578;7.306;2024-03-23T05:10:42;100298.50;;;6.51;100.00
27040;BME280;14589;51.578;7.306;2024-03-23T05:13:13;100284.47;;;6.47;100.00
27040;BME280;14589;51.578;7.306;2024-03-23T05:15:43;100298.63;;;6.49;100.00
27040;BME280;14589;51.578;7.306;2024-03-23T05:18:13;100294.97;;;6.50;100.00
27040;BME280;14589;51.578;7.306;2024-03-23T05:20:44;100294.38;;;6.47;100.00
27040;BME280;14589;51.578;7.306;2024-03-23T05:23:14;100294.09;;;6.50;100.00
27040;BME280;14589;51.578;7.306;2024-03-23T05:25:45;100287.59;;;6.53;100.00
27040;BME280;14589;51.578;7.306;2024-03-23T05:28:16;100294.38;;;6.47;100.00
27040;BME280;14589;51.578;7.306;2024-03-23T05:30:53;100301.00;;;6.43;100.00
27040;BME280;14589;51.578;7.306;2024-03-23T05:33:23;100305.16;;;6.47;100.00
27040;BME280;14589;51.578;7.306;2024-03-23T05:35:58;100296.09;;;6.48;100.00
27040;BME280;14589;51.578;7.306;2024-03-23T05:38:29;100308.09;;;6.44;100.00
27040;BME280;14589;51.578;7.306;2024-03-23T05:41:00;100310.66;;;6.45;100.00
27040;BME280;14589;51.578;7.306;2024-03-23T05:43:30;100301.72;;;6.45;100.00
27040;BME280;14589;51.578;7.306;2024-03-23T05:46:01;100304.44;;;6.45;100.00
27040;BME280;14589;51.578;7.306;2024-03-23T05:48:32;100307.00;;;6.46;100.00
27040;BME280;14589;51.578;7.306;2024-03-23T05:51:02;100309.28;;;6.51;100.00
27040;BME280;14589;51.578;7.306;2024-03-23T05:53:33;100303.16;;;6.49;100.00
27040;BME280;14589;51.578;7.306;2024-03-23T05:56:04;100307.56;;;6.50;100.00
27040;BME280;14589;51.578;7.306;2024-03-23T05:58:35;100308.84;;;6.46;100.00
27040;BME280;14589;51.578;7.306;2024-03-23T06:01:06;100301.72;;;6.45;100.00
27040;BME280;14589;51.578;7.306;2024-03-23T06:03:36;100303.03;;;6.50;100.00
27040;BME280;14589;51.578;7.306;2024-03-23T06:06:06;100300.34;;;6.50;100.00
27040;BME280;14589;51.578;7.306;2024-03-23T06:08:41;100312.81;;;6.52;100.00
27040;BME280;14589;51.578;7.306;2024-03-23T06:11:12;100312.81;;;6.52;100.00
27040;BME280;14589;51.578;7.306;2024-03-23T06:13:42;100316.09;;;6.55;100.00
27040;BME280;14589;51.578;7.306;2024-03-23T06:16:12;100295.25;;;6.47;100.00
27040;BME280;14589;51.578;7.306;2024-03-23T06:18:43;100315.84;;;6.58;100.00
27040;BME280;14589;51.578;7.306;2024-03-23T06:21:14;100310.72;;;6.55;100.00
27040;BME280;14589;51.578;7.306;2024-03-23T06:23:44;100314.88;;;6.59;100.00
27040;BME280;14589;51.578;7.306;2024-03-23T06:26:21;100309.78;;;6.66;100.00
27040;BME280;14589;51.578;7.306;2024-03-23T06:28:51;100309.59;;;6.58;100.00
27040;BME280;14589;51.578;7.306;2024-03-23T06:31:22;100309.59;;;6.58;100.00
27040;BME280;14589;51.578;7.306;2024-03-23T06:33:52;100315.13;;;6.56;100.00
27040;BME280;14589;51.578;7.306;2024-03-23T06:36:23;100307.88;;;6.57;100.00
27040;BME280;14589;51.578;7.306;2024-03-23T06:38:53;100319.97;;;6.62;100.00
27040;BME280;14589;51.578;7.306;2024-03-23T06:41:24;100323.38;;;6.64;100.00
27040;BME280;14589;51.578;7.306;2024-03-23T06:43:55;100326.66;;;6.68;100.00
27040;BME280;14589;51.578;7.306;2024-03-23T06:46:25;100332.66;;;6.71;100.00
27040;BME280;14589;51.578;7.306;2024-03-23T06:48:55;100331.66;;;6.72;100.00
27040;BME280;14589;51.578;7.306;2024-03-23T06:51:26;100322.00;;;6.70;100.00
27040;BME280;14589;51.578;7.306;2024-03-23T06:53:56;100319.44;;;6.68;100.00
27040;BME280;14589;51.578;7.306;2024-03-23T06:56:26;100325.75;;;6.58;100.00
27040;BME280;14589;51.578;7.306;2024-03-23T06:58:57;100334.28;;;6.63;100.00
27040;BME280;14589;51.578;7.306;2024-03-23T07:01:28;100341.25;;;6.65;100.00
27040;BME280;14589;51.578;7.306;2024-03-23T07:04:01;100327.91;;;6.64;100.00
27040;BME280;14589;51.578;7.306;2024-03-23T07:06:31;100332.44;;;6.63;100.00
27040;BME280;14589;51.578;7.306;2024-03-23T07:09:02;100328.50;;;6.67;100.00
27040;BME280;14589;51.578;7.306;2024-03-23T07:11:32;100331.19;;;6.67;100.00
27040;BME280;14589;51.578;7.306;2024-03-23T07:14:03;100336.19;;;6.72;100.00
27040;BME280;14589;51.578;7.306;2024-03-23T07:16:33;100332.69;;;6.81;100.00
27040;BME280;14589;51.578;7.306;2024-03-23T07:19:04;100334.44;;;6.91;100.00
27040;BME280;14589;51.578;7.306;2024-03-23T07:21:34;100330.38;;;7.07;100.00
27040;BME280;14589;51.578;7.306;2024-03-23T07:24:04;100330.31;;;7.27;100.00
27040;BME280;14589;51.578;7.306;2024-03-23T07:26:35;100324.81;;;7.48;100.00
27040;BME280;14589;51.578;7.306;2024-03-23T07:29:06;100334.22;;;7.73;100.00
27040;BME280;14589;51.578;7.306;2024-03-23T07:31:37;100321.75;;;7.91;100.00
27040;BME280;14589;51.578;7.306;2024-03-23T07:34:08;100336.38;;;7.89;100.00
27040;BME280;14589;51.578;7.306;2024-03-23T07:36:39;100316.63;;;7.98;100.00
27040;BME280;14589;51.578;7.306;2024-03-23T07:39:09;100320.03;;;8.19;100.00
27040;BME280;14589;51.578;7.306;2024-03-23T07:41:39;100312.03;;;8.46;100.00
27040;BME280;14589;51.578;7.306;2024-03-23T07:44:10;100317.72;;;8.53;100.00
27040;BME280;14589;51.578;7.306;2024-03-23T07:46:40;100323.13;;;8.63;100.00
27040;BME280;14589;51.578;7.306;2024-03-23T07:49:10;100325.31;;;8.86;100.00
27040;BME280;14589;51.578;7.306;2024-03-23T07:51:41;100331.91;;;9.11;100.00
27040;BME280;14589;51.578;7.306;2024-03-23T07:54:11;100324.84;;;9.28;99.36
27040;BME280;14589;51.578;7.306;2024-03-23T07:56:41;100330.34;;;9.09;95.57
27040;BME280;14589;51.578;7.306;2024-03-23T07:59:12;100329.59;;;9.44;98.00
27040;BME280;14589;51.578;7.306;2024-03-23T08:01:42;100333.06;;;9.36;95.56
27040;BME280;14589;51.578;7.306;2024-03-23T08:04:12;100325.81;;;9.37;94.05
27040;BME280;14589;51.578;7.306;2024-03-23T08:06:43;100321.66;;;9.32;93.30
27040;BME280;14589;51.578;7.306;2024-03-23T08:09:13;100322.72;;;9.22;90.96
27040;BME280;14589;51.578;7.306;2024-03-23T08:11:44;100334.88;;;9.08;90.94
27040;BME280;14589;51.578;7.306;2024-03-23T08:14:16;100327.38;;;9.02;90.46
27040;BME280;14589;51.578;7.306;2024-03-23T08:16:46;100327.38;;;9.02;90.45
27040;BME280;14589;51.578;7.306;2024-03-23T08:19:19;100334.09;;;8.98;87.93
27040;BME280;14589;51.578;7.306;2024-03-23T08:21:49;100322.88;;;8.93;88.05
27040;BME280;14589;51.578;7.306;2024-03-23T08:24:21;100330.47;;;8.80;88.69
27040;BME280;14589;51.578;7.306;2024-03-23T08:26:54;100323.47;;;8.77;87.55
27040;BME280;14589;51.578;7.306;2024-03-23T08:29:24;100336.16;;;8.77;88.75
27040;BME280;14589;51.578;7.306;2024-03-23T08:31:55;100327.25;;;8.47;87.29
27040;BME280;14589;51.578;7.306;2024-03-23T08:34:25;100315.31;;;8.50;87.45
27040;BME280;14589;51.578;7.306;2024-03-23T08:36:56;100323.44;;;8.40;87.05
27040;BME280;14589;51.578;7.306;2024-03-23T08:39:26;100314.75;;;8.27;89.24
27040;BME280;14589;51.578;7.306;2024-03-23T08:41:56;100321.75;;;8.20;86.76
27040;BME280;14589;51.578;7.306;2024-03-23T08:44:27;100322.59;;;8.21;86.30
27040;BME280;14589;51.578;7.306;2024-03-23T08:46:57;100335.94;;;8.22;87.29
27040;BME280;14589;51.578;7.306;2024-03-23T08:49:27;100329.84;;;8.20;88.45
27040;BME280;14589;51.578;7.306;2024-03-23T08:51:58;100320.19;;;8.08;86.37
27040;BME280;14589;51.578;7.306;2024-03-23T08:54:28;100321.75;;;8.10;86.30
27040;BME280;14589;51.578;7.306;2024-03-23T08:57:00;100313.78;;;8.19;86.93
27040;BME280;14589;51.578;7.306;2024-03-23T08:59:30;100319.72;;;8.22;86.42
27040;BME280;14589;51.578;7.306;2024-03-23T09:02:01;100313.38;;;8.33;85.31
27040;BME280;14589;51.578;7.306;2024-03-23T09:04:31;100311.63;;;8.41;86.94
27040;BME280;14589;51.578;7.306;2024-03-23T09:07:03;100314.50;;;8.77;86.68
27040;BME280;14589;51.578;7.306;2024-03-23T09:09:33;100319.53;;;8.72;84.77
27040;BME280;14589;51.578;7.306;2024-03-23T09:12:04;100310.28;;;8.65;83.39
27040;BME280;14589;51.578;7.306;2024-03-23T09:14:34;100314.00;;;8.64;81.19
27040;BME280;14589;51.578;7.306;2024-03-23T09:17:04;100312.97;;;9.11;82.25
27040;BME280;14589;51.578;7.306;2024-03-23T09:19:35;100315.38;;;9.42;79.06
27040;BME280;14589;51.578;7.306;2024-03-23T09:22:06;100300.78;;;9.88;76.40
27040;BME280;14589;51.578;7.306;2024-03-23T09:24:36;100302.41;;;10.34;75.82
27040;BME280;14589;51.578;7.306;2024-03-23T09:27:07;100310.06;;;10.90;72.94
27040;BME280;14589;51.578;7.306;2024-03-23T09:29:38;100305.69;;;10.97;70.42
27040;BME280;14589;51.578;7.306;2024-03-23T09:32:08;100296.34;;;10.91;68.39
27040;BME280;14589;51.578;7.306;2024-03-23T09:34:38;100300.00;;;10.57;68.42
27040;BME280;14589;51.578;7.306;2024-03-23T09:37:09;100306.34;;;10.39;69.43
27040;BME280;14589;51.578;7.306;2024-03-23T09:39:39;100314.56;;;10.12;67.49
27040;BME280;14589;51.578;7.306;2024-03-23T09:42:09;100311.94;;;9.85;68.09
27040;BME280;14589;51.578;7.306;2024-03-23T09:44:40;100310.13;;;9.58;67.97
27040;BME280;14589;51.578;7.306;2024-03-23T09:47:10;100312.94;;;9.39;66.63
27040;BME280;14589;51.578;7.306;2024-03-23T09:49:41;100317.38;;;9.40;67.45
27040;BME280;14589;51.578;7.306;2024-03-23T09:52:11;100320.59;;;9.25;66.15
27040;BME280;14589;51.578;7.306;2024-03-23T09:54:42;100321.22;;;9.10;68.72
27040;BME280;14589;51.578;7.306;2024-03-23T09:57:12;100313.75;;;9.49;65.75
27040;BME280;14589;51.578;7.306;2024-03-23T09:59:43;100315.16;;;9.88;67.97
27040;BME280;14589;51.578;7.306;2024-03-23T10:02:15;100296.72;;;10.45;65.96
27040;BME280;14589;51.578;7.306;2024-03-23T10:04:47;100306.84;;;10.94;65.52
27040;BME280;14589;51.578;7.306;2024-03-23T10:07:21;100300.28;;;11.39;62.08
27040;BME280;14589;51.578;7.306;2024-03-23T10:09:52;100289.09;;;11.50;61.91
27040;BME280;14589;51.578;7.306;2024-03-23T10:12:24;100299.25;;;10.98;59.34
27040;BME280;14589;51.578;7.306;2024-03-23T10:14:54;100307.31;;;11.16;58.90
27040;BME280;14589;51.578;7.306;2024-03-23T10:17:25;100298.13;;;11.09;59.11
27040;BME280;14589;51.578;7.306;2024-03-23T10:19:56;100302.56;;;11.18;59.23
27040;BME280;14589;51.578;7.306;2024-03-23T10:22:26;100294.69;;;11.49;57.69
27040;BME280;14589;51.578;7.306;2024-03-23T10:25:07;100296.78;;;11.63;57.86
27040;BME280;14589;51.578;7.306;2024-03-23T10:27:38;100281.41;;;11.38;56.99
27040;BME280;14589;51.578;7.306;2024-03-23T10:30:13;100288.88;;;12.10;57.00
27040;BME280;14589;51.578;7.306;2024-03-23T10:32:46;100280.34;;;12.70;57.05
27040;BME280;14589;51.578;7.306;2024-03-23T10:35:20;100284.53;;;12.88;53.78
27040;BME280;14589;51.578;7.306;2024-03-23T10:37:53;100274.91;;;13.09;52.04
27040;BME280;14589;51.578;7.306;2024-03-23T10:40:26;100275.84;;;12.93;51.62
27040;BME280;14589;51.578;7.306;2024-03-23T10:42:58;100268.22;;;13.27;49.28
27040;BME280;14589;51.578;7.306;2024-03-23T10:45:29;100261.31;;;13.17;49.55
27040;BME280;14589;51.578;7.306;2024-03-23T10:47:59;100287.09;;;12.82;50.82
27040;BME280;14589;51.578;7.306;2024-03-23T10:50:30;100272.91;;;12.23;52.20
27040;BME280;14589;51.578;7.306;2024-03-23T10:53:01;100288.31;;;11.74;55.41
27040;BME280;14589;51.578;7.306;2024-03-23T10:55:32;100294.81;;;11.97;53.01
27040;BME280;14589;51.578;7.306;2024-03-23T10:58:04;100284.63;;;12.24;51.79
27040;BME280;14589;51.578;7.306;2024-03-23T11:00:36;100274.03;;;12.61;51.32
27040;BME280;14589;51.578;7.306;2024-03-23T11:03:29;100292.16;;;12.93;50.90
27040;BME280;14589;51.578;7.306;2024-03-23T11:06:00;100277.38;;;13.43;49.91
27040;BME280;14589;51.578;7.306;2024-03-23T11:08:39;100276.53;;;12.87;49.33
27040;BME280;14589;51.578;7.306;2024-03-23T11:11:23;100278.09;;;12.81;49.03
27040;BME280;14589;51.578;7.306;2024-03-23T11:13:55;100307.56;;;12.29;50.62
27040;BME280;14589;51.578;7.306;2024-03-23T11:16:27;100340.94;;;11.23;60.04
27040;BME280;14589;51.578;7.306;2024-03-23T11:19:36;100364.50;;;10.27;66.32
27040;BME280;14589;51.578;7.306;2024-03-23T11:22:07;100364.09;;;9.32;70.89
27040;BME280;14589;51.578;7.306;2024-03-23T11:24:38;100359.66;;;9.13;73.50
27040;BME280;14589;51.578;7.306;2024-03-23T11:27:18;100358.34;;;8.71;77.36
27040;BME280;14589;51.578;7.306;2024-03-23T11:29:48;100340.19;;;8.63;78.18
27040;BME280;14589;51.578;7.306;2024-03-23T11:32:18;100329.38;;;8.63;80.22
27040;BME280;14589;51.578;7.306;2024-03-23T11:34:49;100329.06;;;8.66;79.11
27040;BME280;14589;51.578;7.306;2024-03-23T11:37:19;100303.69;;;9.41;87.64
27040;BME280;14589;51.578;7.306;2024-03-23T11:39:49;100306.19;;;9.88;85.03
27040;BME280;14589;51.578;7.306;2024-03-23T11:42:20;100304.25;;;10.15;84.49
27040;BME280;14589;51.578;7.306;2024-03-23T11:44:52;100301.50;;;10.51;83.57
27040;BME280;14589;51.578;7.306;2024-03-23T11:47:22;100311.13;;;11.05;84.67
27040;BME280;14589;51.578;7.306;2024-03-23T11:49:53;100313.22;;;11.53;83.90
27040;BME280;14589;51.578;7.306;2024-03-23T11:52:23;100307.19;;;11.92;83.46
27040;BME280;14589;51.578;7.306;2024-03-23T11:55:03;100299.75;;;12.02;70.94
27040;BME280;14589;51.578;7.306;2024-03-23T11:57:34;100305.19;;;12.50;72.44
27040;BME280;14589;51.578;7.306;2024-03-23T12:00:20;100288.72;;;12.28;65.48
27040;BME280;14589;51.578;7.306;2024-03-23T12:02:51;100285.41;;;12.81;64.71
27040;BME280;14589;51.578;7.306;2024-03-23T12:05:21;100282.78;;;13.04;64.32
27040;BME280;14589;51.578;7.306;2024-03-23T12:07:52;100281.34;;;12.69;59.56
27040;BME280;14589;51.578;7.306;2024-03-23T12:10:22;100289.13;;;13.66;63.87
27040;BME280;14589;51.578;7.306;2024-03-23T12:13:00;100291.97;;;13.81;56.00
27040;BME280;14589;51.578;7.306;2024-03-23T12:15:31;100286.88;;;14.00;56.18
27040;BME280;14589;51.578;7.306;2024-03-23T12:18:08;100275.81;;;13.71;52.91
27040;BME280;14589;51.578;7.306;2024-03-23T12:20:39;100281.84;;;13.58;53.77
27040;BME280;14589;51.578;7.306;2024-03-23T12:23:11;100260.66;;;13.07;53.98
27040;BME280;14589;51.578;7.306;2024-03-23T12:25:44;100264.16;;;12.76;59.30
27040;BME280;14589;51.578;7.306;2024-03-23T12:28:15;100265.44;;;12.17;61.84
27040;BME280;14589;51.578;7.306;2024-03-23T12:30:45;100267.13;;;12.26;64.06
27040;BME280;14589;51.578;7.306;2024-03-23T12:33:16;100267.13;;;11.78;60.45
27040;BME280;14589;51.578;7.306;2024-03-23T12:35:47;100267.59;;;11.65;61.99
27040;BME280;14589;51.578;7.306;2024-03-23T12:38:17;100269.25;;;11.58;62.16
27040;BME280;14589;51.578;7.306;2024-03-23T12:40:51;100270.19;;;11.99;62.13
27040;BME280;14589;51.578;7.306;2024-03-23T12:43:21;100270.31;;;12.54;60.14
27040;BME280;14589;51.578;7.306;2024-03-23T12:45:52;100272.50;;;12.75;58.29
27040;BME280;14589;51.578;7.306;2024-03-23T12:48:22;100269.47;;;13.09;54.46
27040;BME280;14589;51.578;7.306;2024-03-23T12:50:55;100263.28;;;13.62;52.40
27040;BME280;14589;51.578;7.306;2024-03-23T12:53:26;100266.19;;;14.29;48.33
27040;BME280;14589;51.578;7.306;2024-03-23T12:55:56;100276.16;;;14.59;46.46
27040;BME280;14589;51.578;7.306;2024-03-23T12:58:27;100252.47;;;14.37;47.25
27040;BME280;14589;51.578;7.306;2024-03-23T13:01:00;100256.50;;;14.03;47.04
27040;BME280;14589;51.578;7.306;2024-03-23T13:03:31;100242.72;;;13.82;44.19
27040;BME280;14589;51.578;7.306;2024-03-23T13:06:01;100251.63;;;13.99;44.48
27040;BME280;14589;51.578;7.306;2024-03-23T13:08:34;100251.66;;;13.45;47.00
27040;BME280;14589;51.578;7.306;2024-03-23T13:11:05;100254.69;;;13.03;45.94
27040;BME280;14589;51.578;7.306;2024-03-23T13:13:35;100261.25;;;12.78;48.48
27040;BME280;14589;51.578;7.306;2024-03-23T13:16:09;100255.84;;;12.62;48.12
27040;BME280;14589;51.578;7.306;2024-03-23T13:18:39;100245.91;;;12.22;50.45
27040;BME280;14589;51.578;7.306;2024-03-23T13:21:10;100253.19;;;12.05;52.37
27040;BME280;14589;51.578;7.306;2024-03-23T13:23:40;100254.91;;;11.82;52.53
27040;BME280;14589;51.578;7.306;2024-03-23T13:26:12;100265.22;;;11.12;54.80
27040;BME280;14589;51.578;7.306;2024-03-23T13:28:42;100285.09;;;10.52;58.48
27040;BME280;14589;51.578;7.306;2024-03-23T13:31:13;100281.66;;;10.50;61.57
27040;BME280;14589;51.578;7.306;2024-03-23T13:33:43;100294.75;;;10.29;62.94
27040;BME280;14589;51.578;7.306;2024-03-23T13:36:14;100289.84;;;10.33;64.07
27040;BME280;14589;51.578;7.306;2024-03-23T13:38:44;100285.78;;;10.29;66.05
27040;BME280;14589;51.578;7.306;2024-03-23T13:41:15;100286.78;;;10.53;65.18
27040;BME280;14589;51.578;7.306;2024-03-23T13:43:45;100288.53;;;11.30;61.27
27040;BME280;14589;51.578;7.306;2024-03-23T13:46:15;100272.88;;;11.74;61.55
27040;BME280;14589;51.578;7.306;2024-03-23T13:48:46;100287.88;;;12.27;58.32
27040;BME280;14589;51.578;7.306;2024-03-23T13:51:23;100291.47;;;12.91;57.04
27040;BME280;14589;51.578;7.306;2024-03-23T13:53:55;100269.31;;;13.10;54.29
27040;BME280;14589;51.578;7.306;2024-03-23T13:56:32;100279.84;;;12.42;52.88
27040;BME280;14589;51.578;7.306;2024-03-23T13:59:02;100280.56;;;12.11;53.85
27040;BME280;14589;51.578;7.306;2024-03-23T14:01:33;100288.19;;;11.84;53.98
27040;BME280;14589;51.578;7.306;2024-03-23T14:04:04;100289.78;;;11.52;54.13
27040;BME280;14589;51.578;7.306;2024-03-23T14:06:34;100288.31;;;11.24;55.67